Time;durP1;ratioP1;P1;durP2;ratioP2;P2;SDS_P1;SDS_P2;PMS_P1;PMS_P2;Temp;Humidity;BMP_temperature;BMP_pressure;BME280_temperature;BME280_humidity;BME280_pressure;Samples;Min_cycle;Max_cycle;Signal;HPM_P1;HPM_P2
2021/11/10 00:00:44;;;;;;;35.55;20.33;;;10.50;84.90;;;;;;5079929;28;20059;-74
2021/11/10 00:03:10;;;;;;;35.47;20.33;;;10.40;84.60;;;;;;5080045;28;20024;-74
2021/11/10 00:05:38;;;;;;;32.50;18.75;;;10.40;84.70;;;;;;5079820;28;20475;-74
2021/11/10 00:08:04;;;;;;;34.00;19.75;;;10.30;84.60;;;;;;5080014;28;20013;-74
2021/11/10 00:10:30;;;;;;;31.27;19.63;;;10.20;84.50;;;;;;5079088;28;20048;-74
2021/11/10 00:13:03;;;;;;;35.42;18.80;;;10.20;84.50;;;;;;5079605;28;20028;-74
2021/11/10 00:15:29;;;;;;;31.98;17.98;;;10.10;84.60;;;;;;5078300;28;20445;-74
2021/11/10 00:17:55;;;;;;;35.65;19.20;;;10.10;84.70;;;;;;5079894;28;20082;-74
2021/11/10 00:20:21;;;;;;;27.63;16.55;;;10.00;84.60;;;;;;5079518;28;20028;-74
2021/11/10 00:22:46;;;;;;;26.90;15.57;;;10.00;84.70;;;;;;5079669;28;20016;-74
2021/11/10 00:25:12;;;;;;;23.92;15.77;;;9.90;84.70;;;;;;5079237;28;20029;-74
2021/11/10 00:27:38;;;;;;;24.20;14.23;;;9.90;84.70;;;;;;5079023;28;20074;-74
2021/11/10 00:30:04;;;;;;;27.13;15.98;;;9.90;84.90;;;;;;5079157;28;20049;-74
2021/11/10 00:32:30;;;;;;;29.30;15.45;;;9.80;84.90;;;;;;5079459;28;20031;-74
2021/11/10 00:34:56;;;;;;;31.80;17.55;;;9.80;84.90;;;;;;5079341;28;20032;-74
2021/11/10 00:37:22;;;;;;;30.25;17.05;;;9.80;85.20;;;;;;5079101;28;20051;-74
2021/11/10 00:39:48;;;;;;;29.55;17.58;;;9.70;85.10;;;;;;5079017;28;20391;-74
2021/11/10 00:42:14;;;;;;;24.40;15.13;;;9.70;85.20;;;;;;5079015;28;20023;-74
2021/11/10 00:44:40;;;;;;;29.83;16.25;;;9.70;85.50;;;;;;5078971;28;20093;-74
2021/11/10 00:47:06;;;;;;;31.85;17.40;;;9.70;85.90;;;;;;5079260;28;20530;-74
2021/11/10 00:49:31;;;;;;;33.58;17.88;;;9.70;86.40;;;;;;5076553;28;20029;-74
2021/11/10 00:51:57;;;;;;;30.40;17.90;;;9.70;86.40;;;;;;5067776;28;20020;-74
2021/11/10 00:54:25;;;;;;;28.15;17.27;;;9.70;86.80;;;;;;5078683;28;20035;-74
2021/11/10 00:56:50;;;;;;;24.77;16.48;;;9.70;86.80;;;;;;5079091;28;20010;-74
2021/11/10 00:59:16;;;;;;;23.73;16.17;;;9.70;86.60;;;;;;5078444;28;20024;-74
2021/11/10 01:01:42;;;;;;;27.55;16.73;;;9.70;86.70;;;;;;5079001;28;20383;-74
2021/11/10 01:04:08;;;;;;;25.75;17.05;;;9.70;86.70;;;;;;5078526;28;20056;-74
2021/11/10 01:06:34;;;;;;;23.52;16.10;;;9.70;86.80;;;;;;5078735;28;20074;-74
2021/11/10 01:09:00;;;;;;;23.15;15.80;;;9.80;87.20;;;;;;5078426;28;20411;-74
2021/11/10 01:11:26;;;;;;;28.27;18.63;;;9.80;87.40;;;;;;5078787;28;20048;-74
2021/11/10 01:13:52;;;;;;;30.15;19.05;;;9.80;87.60;;;;;;5078439;28;20048;-74
2021/11/10 01:16:18;;;;;;;25.85;17.48;;;9.80;87.60;;;;;;5078587;28;20017;-74
2021/11/10 01:18:44;;;;;;;32.45;20.15;;;9.80;87.30;;;;;;5078397;28;20024;-74
2021/11/10 01:21:10;;;;;;;29.25;19.88;;;9.80;87.90;;;;;;5078287;28;20430;-74
2021/11/10 01:23:36;;;;;;;31.48;19.67;;;9.80;87.80;;;;;;5077550;28;20020;-74
2021/11/10 01:26:01;;;;;;;29.75;20.05;;;9.80;87.60;;;;;;5077823;28;20029;-74
2021/11/10 01:28:27;;;;;;;32.58;21.55;;;9.80;87.70;;;;;;5077854;28;20034;-74
2021/11/10 01:30:53;;;;;;;38.83;22.17;;;9.80;87.90;;;;;;5078244;28;20017;-74
2021/11/10 01:33:19;;;;;;;35.13;21.67;;;9.80;88.30;;;;;;5078057;28;20055;-74
2021/11/10 01:35:44;;;;;;;31.65;19.98;;;9.70;88.20;;;;;;5078210;28;20044;-74
2021/11/10 01:38:10;;;;;;;27.88;19.58;;;9.70;88.00;;;;;;5077955;28;20033;-74
2021/11/10 01:40:36;;;;;;;33.63;19.95;;;9.70;88.00;;;;;;5078081;28;20483;-74
2021/11/10 01:43:17;;;;;;;31.13;19.95;;;9.70;87.80;;;;;;5077637;28;20115;-74
2021/11/10 01:45:44;;;;;;;32.25;19.13;;;9.70;87.70;;;;;;5076735;28;20078;-74
2021/11/10 01:48:10;;;;;;;31.42;19.45;;;9.70;87.80;;;;;;5077954;28;20474;-74
2021/11/10 01:50:37;;;;;;;30.33;18.45;;;9.70;87.80;;;;;;5066739;28;20028;-74
2021/11/10 01:53:03;;;;;;;31.35;18.63;;;9.70;87.60;;;;;;5075625;28;20021;-74
2021/11/10 01:55:29;;;;;;;31.33;18.98;;;9.70;87.60;;;;;;5077847;28;20013;-74
2021/11/10 01:57:55;;;;;;;29.05;17.08;;;9.70;87.70;;;;;;5077384;28;20029;-74
2021/11/10 02:00:26;;;;;;;26.80;16.30;;;9.70;87.50;;;;;;5077861;28;20050;-74
2021/11/10 02:02:54;;;;;;;30.48;17.50;;;9.70;87.50;;;;;;5077584;28;20059;-74
2021/11/10 02:05:22;;;;;;;28.52;16.42;;;9.70;87.40;;;;;;5077723;28;20052;-74
2021/11/10 02:07:48;;;;;;;32.67;17.77;;;9.70;87.40;;;;;;5077494;28;20052;-74
2021/11/10 02:10:19;;;;;;;28.05;17.25;;;9.70;88.00;;;;;;5077517;28;20506;-74
2021/11/10 02:12:46;;;;;;;29.27;17.52;;;9.70;87.40;;;;;;5076018;28;20025;-74
2021/11/10 02:15:15;;;;;;;27.95;16.00;;;9.80;87.60;;;;;;5077720;28;20143;-74
2021/11/10 02:17:42;;;;;;;31.58;17.25;;;9.80;87.40;;;;;;5077799;28;20066;-73
2021/11/10 02:20:10;;;;;;;27.08;17.10;;;9.80;87.50;;;;;;5077480;28;20016;-74
2021/11/10 02:22:38;;;;;;;28.88;16.42;;;9.80;87.40;;;;;;5077733;28;20032;-74
2021/11/10 02:25:08;;;;;;;27.83;15.40;;;9.80;87.30;;;;;;5077364;28;20028;-74
2021/11/10 02:27:35;;;;;;;23.70;16.30;;;9.80;87.20;;;;;;5076760;28;20049;-73
2021/11/10 02:30:06;;;;;;;30.10;16.50;;;9.80;87.30;;;;;;5077181;28;20012;-74
2021/11/10 02:32:33;;;;;;;27.15;16.70;;;9.80;87.40;;;;;;5077391;28;20021;-74
2021/11/10 02:34:59;;;;;;;29.55;16.38;;;9.80;87.30;;;;;;5076967;28;20020;-74
2021/11/10 02:37:25;;;;;;;34.03;18.30;;;9.80;87.40;;;;;;5077195;28;20055;-74
2021/11/10 02:39:52;;;;;;;31.45;19.65;;;9.80;87.70;;;;;;5077070;28;20103;-74
2021/11/10 02:42:21;;;;;;;27.95;19.10;;;9.80;87.60;;;;;;5077123;28;20115;-73
2021/11/10 02:44:51;;;;;;;27.95;18.65;;;9.80;87.60;;;;;;5077062;28;20032;-74
2021/11/10 02:47:18;;;;;;;25.73;17.33;;;9.80;87.60;;;;;;5075970;28;20024;-74
2021/11/10 02:49:44;;;;;;;32.20;19.33;;;9.70;87.40;;;;;;5072937;28;20521;-74
2021/11/10 02:52:13;;;;;;;39.60;19.50;;;9.80;87.60;;;;;;5083233;28;20032;-73
2021/11/10 02:54:45;;;;;;;32.22;19.02;;;9.70;87.50;;;;;;5076973;28;20025;-73
2021/11/10 02:57:12;;;;;;;28.35;18.15;;;9.70;87.60;;;;;;5076902;28;20024;-74
2021/11/10 02:59:38;;;;;;;28.83;17.67;;;9.70;87.50;;;;;;5076998;28;20036;-74
2021/11/10 03:02:05;;;;;;;30.58;18.52;;;9.70;87.50;;;;;;5077240;28;20025;-73
2021/11/10 03:04:36;;;;;;;26.42;16.55;;;9.70;87.50;;;;;;5076812;28;20024;-74
2021/11/10 03:07:03;;;;;;;34.90;17.63;;;9.70;87.40;;;;;;5077143;28;20025;-73
2021/11/10 03:09:31;;;;;;;33.85;17.58;;;9.70;87.20;;;;;;5075682;28;20395;-74
2021/11/10 03:11:58;;;;;;;26.50;16.33;;;9.60;87.70;;;;;;5076652;28;20028;-74
2021/11/10 03:14:25;;;;;;;32.85;16.80;;;9.70;87.20;;;;;;5075678;28;20024;-74
2021/11/10 03:16:51;;;;;;;23.90;15.60;;;9.70;87.20;;;;;;5075644;28;20387;-74
2021/11/10 03:19:19;;;;;;;26.40;17.00;;;9.70;87.10;;;;;;5077023;28;20044;-73
2021/11/10 03:21:45;;;;;;;36.58;17.88;;;9.70;87.10;;;;;;5076854;28;20024;-74
2021/11/10 03:24:10;;;;;;;28.42;17.40;;;9.70;87.80;;;;;;5076710;28;20023;-74
2021/11/10 03:26:36;;;;;;;30.17;17.00;;;9.70;87.00;;;;;;5076339;28;20499;-73
2021/11/10 03:29:03;;;;;;;27.60;15.77;;;9.70;87.00;;;;;;5075205;28;20065;-74
2021/11/10 03:31:36;;;;;;;27.35;16.35;;;9.60;86.90;;;;;;5077013;28;20025;-74
2021/11/10 03:34:04;;;;;;;27.58;16.73;;;9.60;86.90;;;;;;5076675;28;20024;-73
2021/11/10 03:36:31;;;;;;;30.83;16.25;;;9.70;87.00;;;;;;5076502;28;20045;-74
2021/11/10 03:38:57;;;;;;;26.77;16.15;;;9.60;87.10;;;;;;5076682;28;20045;-73
2021/11/10 03:41:24;;;;;;;28.73;16.77;;;9.60;87.70;;;;;;5076605;28;20517;-74
2021/11/10 03:43:51;;;;;;;24.65;15.93;;;9.60;87.00;;;;;;5075173;28;20040;-74
2021/11/10 03:46:18;;;;;;;27.50;16.00;;;9.60;86.80;;;;;;5078713;28;20029;-74
2021/11/10 03:48:45;;;;;;;27.50;16.40;;;9.50;86.60;;;;;;5080313;28;20019;-74
2021/11/10 03:51:10;;;;;;;28.73;16.70;;;9.40;86.50;;;;;;5066464;28;20395;-74
2021/11/10 03:53:37;;;;;;;26.23;16.45;;;9.40;86.50;;;;;;5080023;28;20031;-74
2021/11/10 03:56:03;;;;;;;28.70;15.50;;;9.30;86.50;;;;;;5080042;28;20513;-74
2021/11/10 03:58:31;;;;;;;27.55;15.32;;;9.20;86.40;;;;;;5079960;28;20066;-74
2021/11/10 04:00:57;;;;;;;23.98;15.38;;;9.10;86.30;;;;;;5079871;28;20028;-74
2021/11/10 04:03:23;;;;;;;25.30;15.93;;;9.10;86.30;;;;;;5080119;28;20017;-74
2021/11/10 04:05:49;;;;;;;25.00;15.32;;;9.00;86.30;;;;;;5079764;28;20459;-74
2021/11/10 04:08:15;;;;;;;25.45;16.02;;;8.90;86.20;;;;;;5080022;28;20021;-74
2021/11/10 04:10:41;;;;;;;25.00;15.77;;;8.80;86.20;;;;;;5079599;28;20013;-74
2021/11/10 04:13:07;;;;;;;27.38;16.90;;;8.80;86.30;;;;;;5079846;28;20029;-74
2021/11/10 04:15:33;;;;;;;26.80;15.68;;;8.70;86.10;;;;;;5079612;28;20024;-74
2021/11/10 04:17:59;;;;;;;27.05;17.05;;;8.70;86.10;;;;;;5078677;28;20111;-74
2021/11/10 04:20:25;;;;;;;31.58;16.73;;;8.60;86.10;;;;;;5079528;28;20034;-74
2021/11/10 04:22:51;;;;;;;30.50;16.70;;;8.60;86.30;;;;;;5079666;28;20017;-74
2021/11/10 04:25:17;;;;;;;29.48;17.48;;;8.50;86.40;;;;;;5079315;28;20029;-74
2021/11/10 04:27:43;;;;;;;29.25;17.38;;;8.50;86.50;;;;;;5078963;28;20506;-74
2021/11/10 04:30:11;;;;;;;31.83;16.60;;;8.40;86.40;;;;;;5079288;28;20096;-74
2021/11/10 04:32:38;;;;;;;23.60;15.57;;;8.40;86.30;;;;;;5079503;28;20463;-74
2021/11/10 04:35:09;;;;;;;28.58;16.45;;;8.30;86.30;;;;;;5079227;28;20067;-74
2021/11/10 04:37:35;;;;;;;30.80;16.02;;;8.30;86.40;;;;;;5079211;28;20045;-74
2021/11/10 04:40:04;;;;;;;27.80;16.33;;;8.20;86.40;;;;;;5079087;28;20052;-74
2021/11/10 04:42:30;;;;;;;24.98;16.05;;;8.20;86.70;;;;;;5078825;28;20025;-74
2021/11/10 04:45:04;;;;;;;27.88;16.45;;;8.20;86.90;;;;;;5079342;28;20035;-74
2021/11/10 04:47:31;;;;;;;23.83;15.50;;;8.20;86.90;;;;;;5079203;28;20070;-74
2021/11/10 04:49:56;;;;;;;28.83;16.77;;;8.10;86.90;;;;;;5073364;28;20021;-74
2021/11/10 04:52:22;;;;;;;23.15;15.63;;;8.10;86.80;;;;;;5071581;28;20096;-74
2021/11/10 04:54:50;;;;;;;28.05;14.82;;;8.00;86.70;;;;;;5078643;28;20107;-74
2021/11/10 04:57:16;;;;;;;26.92;17.05;;;8.00;86.80;;;;;;5078640;28;20110;-74
2021/11/10 04:59:42;;;;;;;24.63;16.27;;;8.00;87.30;;;;;;5078742;28;20471;-74
2021/11/10 05:04:35;;;;;;;22.10;15.07;;;8.00;87.50;;;;;;5078853;28;20051;-74
2021/11/10 05:07:02;;;;;;;25.80;15.02;;;7.90;87.60;;;;;;5078827;28;20027;-74
2021/11/10 05:09:29;;;;;;;25.65;15.23;;;7.90;88.10;;;;;;5078454;28;20025;-74
2021/11/10 05:11:56;;;;;;;31.10;15.50;;;7.90;88.10;;;;;;5078312;28;20477;-74
2021/11/10 05:14:22;;;;;;;24.73;14.55;;;7.80;88.40;;;;;;5078452;28;20066;-74
2021/11/10 05:16:48;;;;;;;24.80;14.80;;;7.80;88.40;;;;;;5078552;28;20048;-74
2021/11/10 05:19:16;;;;;;;29.42;17.05;;;7.80;88.70;;;;;;5078378;28;20077;-74
2021/11/10 05:21:41;;;;;;;23.05;16.17;;;7.80;89.00;;;;;;5078330;28;20021;-74
2021/11/10 05:24:08;;;;;;;25.40;14.63;;;7.80;89.20;;;;;;5078273;28;20120;-74
2021/11/10 05:26:34;;;;;;;26.27;15.38;;;7.70;88.60;;;;;;5077719;28;20019;-74
2021/11/10 05:29:00;;;;;;;26.92;14.20;;;7.70;88.40;;;;;;5078279;28;20104;-74
2021/11/10 05:31:26;;;;;;;25.52;15.25;;;7.70;88.30;;;;;;5078187;28;20013;-74
2021/11/10 05:33:52;;;;;;;23.67;15.30;;;7.60;88.10;;;;;;5078177;28;20074;-74
2021/11/10 05:36:18;;;;;;;21.98;14.10;;;7.70;88.00;;;;;;5077982;28;20052;-76
2021/11/10 05:38:44;;;;;;;24.92;15.40;;;7.60;87.80;;;;;;5078116;28;20063;-80
2021/11/10 05:41:10;;;;;;;20.30;13.95;;;7.50;87.70;;;;;;5078017;28;20029;-80
2021/11/10 05:43:36;;;;;;;26.63;15.90;;;7.50;87.70;;;;;;5077805;28;20590;-80
2021/11/10 05:46:04;;;;;;;25.65;15.18;;;7.50;87.60;;;;;;5077933;28;20025;-81
2021/11/10 05:48:30;;;;;;;25.23;16.02;;;7.40;87.60;;;;;;5078049;28;20483;-80
2021/11/10 05:50:57;;;;;;;24.75;16.70;;;7.40;87.60;;;;;;5073480;28;20025;-78
2021/11/10 05:53:23;;;;;;;24.48;14.93;;;7.30;87.50;;;;;;5076468;28;20017;-78
2021/11/10 05:55:55;;;;;;;28.23;16.23;;;7.30;87.50;;;;;;5076354;28;20024;-81
2021/11/10 05:58:22;;;;;;;24.58;15.82;;;7.30;88.20;;;;;;5076175;28;20024;-79
2021/11/10 06:00:52;;;;;;;22.25;15.00;;;7.30;87.50;;;;;;5077648;28;20441;-79
2021/11/10 06:03:18;;;;;;;23.15;14.52;;;7.30;87.60;;;;;;5077894;28;20029;-80
2021/11/10 06:05:44;;;;;;;21.45;14.63;;;7.30;87.60;;;;;;5077476;28;20154;-83
2021/11/10 06:08:10;;;;;;;23.77;15.35;;;7.30;87.50;;;;;;5077417;28;20032;-83
2021/11/10 06:10:36;;;;;;;24.70;15.48;;;7.30;87.70;;;;;;5077353;28;20031;-75
2021/11/10 06:13:02;;;;;;;24.55;15.45;;;7.30;87.90;;;;;;5077243;28;20024;-75
2021/11/10 06:15:28;;;;;;;30.98;18.17;;;7.20;87.90;;;;;;5077461;28;20028;-73
2021/11/10 06:17:54;;;;;;;29.20;17.38;;;7.30;88.50;;;;;;5077883;28;20032;-82
2021/11/10 06:20:20;;;;;;;28.63;15.50;;;7.30;88.80;;;;;;5077333;28;20020;-79
2021/11/10 06:22:46;;;;;;;29.70;17.83;;;7.30;89.00;;;;;;5077572;28;20028;-79
2021/11/10 06:25:12;;;;;;;26.23;17.13;;;7.40;89.10;;;;;;5077071;28;20021;-78
2021/11/10 06:27:38;;;;;;;29.80;16.85;;;7.30;88.90;;;;;;5076788;28;20033;-79
2021/11/10 06:30:05;;;;;;;26.15;17.63;;;7.40;89.40;;;;;;5077122;28;20052;-80
2021/11/10 06:32:31;;;;;;;25.48;15.70;;;7.40;89.20;;;;;;5075869;28;20410;-80
2021/11/10 06:34:57;;;;;;;25.23;17.02;;;7.40;89.30;;;;;;5077508;28;20073;-80
2021/11/10 06:37:23;;;;;;;33.78;17.40;;;7.40;89.20;;;;;;5077113;28;20223;-80
2021/11/10 06:39:49;;;;;;;25.52;16.33;;;7.40;89.10;;;;;;5077138;28;20031;-80
2021/11/10 06:42:14;;;;;;;29.05;17.35;;;7.40;89.30;;;;;;5076957;28;20055;-80
2021/11/10 06:44:40;;;;;;;25.45;16.27;;;7.40;89.50;;;;;;5077099;28;20028;-80
2021/11/10 06:47:06;;;;;;;29.77;17.50;;;7.40;89.60;;;;;;5075897;28;20024;-80
2021/11/10 06:49:32;;;;;;;25.67;17.42;;;7.40;89.50;;;;;;5074663;28;20020;-81
2021/11/10 06:51:58;;;;;;;25.33;15.75;;;7.40;89.60;;;;;;5066125;28;20020;-80
2021/11/10 06:54:25;;;;;;;28.52;16.05;;;7.40;89.40;;;;;;5076980;28;20019;-80
2021/11/10 06:56:53;;;;;;;32.42;17.27;;;7.40;89.20;;;;;;5076980;28;20032;-80
2021/11/10 06:59:19;;;;;;;31.75;15.32;;;7.40;89.40;;;;;;5077117;28;20471;-77
2021/11/10 07:01:47;;;;;;;24.45;16.65;;;7.40;89.80;;;;;;5077006;28;20471;-78
2021/11/10 07:04:13;;;;;;;25.30;16.48;;;7.40;89.70;;;;;;5074819;28;20449;-78
2021/11/10 07:06:39;;;;;;;28.20;17.73;;;7.40;89.90;;;;;;5076104;28;20108;-78
2021/11/10 07:09:07;;;;;;;27.27;17.80;;;7.30;90.00;;;;;;5075555;28;20055;-78
2021/11/10 07:11:34;;;;;;;27.48;15.82;;;7.40;90.00;;;;;;5077094;28;20020;-78
2021/11/10 07:14:05;;;;;;;25.65;15.98;;;7.40;89.90;;;;;;5076726;28;20024;-78
2021/11/10 07:16:32;;;;;;;25.05;16.73;;;7.40;89.60;;;;;;5077093;28;20035;-78
2021/11/10 07:18:58;;;;;;;30.88;16.98;;;7.40;89.80;;;;;;5076825;28;20024;-78
2021/11/10 07:21:24;;;;;;;28.60;16.92;;;7.40;90.00;;;;;;5079610;28;20070;-78
2021/11/10 07:23:49;;;;;;;28.20;16.90;;;7.40;90.10;;;;;;5080528;28;20021;-78
2021/11/10 07:26:15;;;;;;;28.25;17.50;;;7.40;90.00;;;;;;5078094;28;20033;-78
2021/11/10 07:28:41;;;;;;;27.08;17.52;;;7.40;90.00;;;;;;5080178;28;20013;-78
2021/11/10 07:31:07;;;;;;;34.65;19.10;;;7.40;90.10;;;;;;5080629;28;20054;-78
2021/11/10 07:33:33;;;;;;;27.67;17.08;;;7.50;90.20;;;;;;5080338;28;20024;-77
2021/11/10 07:35:59;;;;;;;33.28;17.50;;;7.50;90.10;;;;;;5080408;28;20123;-78
2021/11/10 07:38:25;;;;;;;29.33;17.33;;;7.50;90.10;;;;;;5080324;28;20103;-77
2021/11/10 07:40:53;;;;;;;26.75;16.85;;;7.50;90.00;;;;;;5080394;28;20020;-78
2021/11/10 07:43:20;;;;;;;29.77;17.38;;;7.50;90.00;;;;;;5079951;28;20034;-78
2021/11/10 07:45:51;;;;;;;26.38;17.10;;;7.50;90.00;;;;;;5080252;28;20021;-78
2021/11/10 07:48:17;;;;;;;29.02;17.30;;;7.50;89.90;;;;;;5080346;28;20025;-77
2021/11/10 07:50:44;;;;;;;27.70;17.02;;;7.60;89.90;;;;;;5067989;28;20021;-77
2021/11/10 07:53:10;;;;;;;25.55;14.90;;;7.60;89.80;;;;;;5078723;28;20391;-77
2021/11/10 07:55:36;;;;;;;24.35;15.90;;;7.60;89.60;;;;;;5080084;28;20063;-78
2021/11/10 07:58:02;;;;;;;32.47;15.00;;;7.60;89.50;;;;;;5079737;28;20028;-78
2021/11/10 08:00:29;;;;;;;30.20;15.82;;;7.60;89.50;;;;;;5080104;28;20025;-77
2021/11/10 08:02:55;;;;;;;26.98;16.00;;;7.60;89.30;;;;;;5079792;28;20108;-79
2021/11/10 08:05:22;;;;;;;27.83;15.43;;;7.60;89.20;;;;;;5079895;28;20021;-78
2021/11/10 08:07:48;;;;;;;22.40;14.55;;;7.60;89.10;;;;;;5079790;28;20406;-78
2021/11/10 08:10:15;;;;;;;29.48;15.65;;;7.70;89.20;;;;;;5079759;28;20073;-78
2021/11/10 08:12:42;;;;;;;25.48;15.95;;;7.70;89.20;;;;;;5078353;28;20438;-79
2021/11/10 08:15:10;;;;;;;29.25;15.90;;;7.70;89.00;;;;;;5078433;28;20036;-78
2021/11/10 08:17:36;;;;;;;28.73;16.10;;;7.70;89.00;;;;;;5079841;28;20028;-79
2021/11/10 08:20:07;;;;;;;26.58;15.80;;;7.80;89.10;;;;;;5078326;28;20032;-79
2021/11/10 08:22:34;;;;;;;25.42;15.18;;;7.80;89.10;;;;;;5079678;28;20409;-79
2021/11/10 08:25:00;;;;;;;28.83;15.35;;;7.80;89.10;;;;;;5079318;28;20060;-78
2021/11/10 08:27:26;;;;;;;25.10;15.48;;;7.80;89.10;;;;;;5078886;28;20020;-78
2021/11/10 08:29:52;;;;;;;26.58;16.00;;;7.90;89.10;;;;;;5079386;28;20095;-78
2021/11/10 08:32:18;;;;;;;22.67;15.38;;;8.00;89.20;;;;;;5078997;28;20031;-78
2021/11/10 08:34:45;;;;;;;24.33;13.52;;;8.00;89.00;;;;;;5079454;28;20556;-78
2021/11/10 08:37:11;;;;;;;24.50;15.15;;;8.10;89.00;;;;;;5079222;28;20051;-78
2021/11/10 08:39:37;;;;;;;24.92;14.90;;;8.20;89.10;;;;;;5079232;28;20025;-78
2021/11/10 08:42:04;;;;;;;21.70;15.00;;;8.30;89.10;;;;;;5079132;28;20028;-78
2021/11/10 08:44:33;;;;;;;23.48;15.73;;;8.40;89.10;;;;;;5079100;28;20033;-78
2021/11/10 08:46:59;;;;;;;21.50;14.70;;;8.50;89.10;;;;;;5079351;28;20035;-78
2021/11/10 08:49:25;;;;;;;24.67;14.48;;;8.70;89.20;;;;;;5077595;28;20099;-78
2021/11/10 08:51:52;;;;;;;38.83;21.48;;;8.80;89.20;;;;;;5067043;28;20025;-78
2021/11/10 08:54:19;;;;;;;30.58;17.80;;;8.90;89.20;;;;;;5078758;28;20012;-78
2021/11/10 08:56:45;;;;;;;27.42;15.93;;;9.00;89.20;;;;;;5078915;28;20028;-78
2021/11/10 08:59:11;;;;;;;28.88;16.10;;;9.20;89.10;;;;;;5078933;28;20493;-78
2021/11/10 09:01:38;;;;;;;27.65;16.38;;;9.40;88.90;;;;;;5079065;28;20027;-78
2021/11/10 09:04:05;;;;;;;26.75;15.50;;;9.40;88.20;;;;;;5078718;28;20017;-78
2021/11/10 09:06:31;;;;;;;25.05;15.27;;;9.50;87.70;;;;;;5078919;28;20032;-78
2021/11/10 09:08:57;;;;;;;25.35;16.15;;;9.50;87.30;;;;;;5078501;28;20025;-78
2021/11/10 09:11:23;;;;;;;24.42;15.68;;;9.50;87.10;;;;;;5078808;28;20540;-78
2021/11/10 09:13:49;;;;;;;26.95;17.27;;;9.40;87.00;;;;;;5078345;28;20020;-78
2021/11/10 09:16:15;;;;;;;29.70;19.13;;;9.40;87.10;;;;;;5078777;28;20107;-78
2021/11/10 09:18:40;;;;;;;24.80;17.05;;;9.30;87.20;;;;;;5078453;28;20056;-78
2021/11/10 09:21:06;;;;;;;28.63;17.52;;;9.30;87.50;;;;;;5078643;28;20048;-78
2021/11/10 09:23:33;;;;;;;27.67;19.85;;;9.40;87.80;;;;;;5078438;28;20577;-78
2021/11/10 09:25:58;;;;;;;25.92;16.85;;;9.40;87.90;;;;;;5078268;28;20039;-78
2021/11/10 09:28:24;;;;;;;26.40;13.68;;;9.40;87.70;;;;;;5074951;28;20021;-78
2021/11/10 09:30:54;;;;;;;26.38;15.00;;;9.40;87.40;;;;;;5078556;28;20029;-78
2021/11/10 09:33:21;;;;;;;22.60;13.90;;;9.50;87.30;;;;;;5078116;28;20025;-79
2021/11/10 09:35:47;;;;;;;25.35;14.98;;;9.50;87.50;;;;;;5078247;28;20051;-78
2021/11/10 09:38:14;;;;;;;22.60;15.00;;;9.60;87.80;;;;;;5078091;28;20032;-78
2021/11/10 09:40:41;;;;;;;27.60;14.85;;;9.90;88.50;;;;;;5076766;28;20035;-78
2021/11/10 09:43:08;;;;;;;20.92;14.60;;;10.20;87.90;;;;;;5076972;28;20036;-78
2021/11/10 09:45:35;;;;;;;24.85;15.32;;;10.50;88.00;;;;;;5076684;28;20055;-78
2021/11/10 09:48:04;;;;;;;23.73;14.95;;;11.00;89.30;;;;;;5077846;28;20029;-78
2021/11/10 09:50:31;;;;;;;25.88;12.90;;;11.60;88.30;;;;;;5067625;28;20045;-78
2021/11/10 09:52:58;;;;;;;21.35;13.25;;;12.10;87.50;;;;;;5074846;28;20044;-78
2021/11/10 09:55:28;;;;;;;20.73;13.60;;;12.50;85.30;;;;;;5077946;28;20028;-78
2021/11/10 09:57:54;;;;;;;26.63;12.23;;;12.90;84.30;;;;;;5077436;28;20020;-78
2021/11/10 10:00:24;;;;;;;23.05;12.18;;;13.30;83.90;;;;;;5078031;28;20024;-77
2021/11/10 10:02:51;;;;;;;25.55;13.65;;;13.80;82.40;;;;;;5077551;28;20036;-78
2021/11/10 10:05:20;;;;;;;17.92;11.93;;;14.40;82.00;;;;;;5077781;28;20070;-78
2021/11/10 10:07:49;;;;;;;20.42;11.70;;;14.90;81.40;;;;;;5077525;28;20083;-78
2021/11/10 10:10:16;;;;;;;20.20;11.45;;;15.50;79.80;;;;;;5076114;28;20027;-78
2021/11/10 10:12:41;;;;;;;24.40;11.43;;;15.90;78.20;;;;;;5064144;28;20028;-77
2021/11/10 10:15:09;;;;;;;20.17;10.48;;;16.30;76.90;;;;;;5077595;28;20037;-78
2021/11/10 10:17:42;;;;;;;20.45;11.05;;;16.70;75.70;;;;;;5077649;28;20020;-78
2021/11/10 10:20:43;;;;;;;22.05;10.60;;;17.10;72.80;;;;;;5077349;28;20032;-78
2021/11/10 10:23:19;;;;;;;18.45;10.38;;;17.50;71.30;;;;;;5069237;28;20506;-78
2021/11/10 10:25:49;;;;;;;20.15;11.05;;;17.70;71.70;;;;;;5064982;28;20036;-78
2021/11/10 10:28:29;;;;;;;19.38;11.60;;;18.00;70.00;;;;;;5076646;28;20070;-78
2021/11/10 10:31:01;;;;;;;19.85;10.32;;;18.20;70.00;;;;;;5077638;28;20023;-75
2021/11/10 10:33:31;;;;;;;23.70;12.00;;;18.50;70.30;;;;;;5077258;28;20434;-75
2021/11/10 10:36:09;;;;;;;17.65;10.57;;;18.70;69.10;;;;;;5077103;28;20044;-75
2021/11/10 10:38:53;;;;;;;19.45;11.02;;;18.90;68.60;;;;;;5063002;28;20025;-75
2021/11/10 10:41:28;;;;;;;19.63;10.45;;;19.20;67.90;;;;;;5077225;28;20056;-75
2021/11/10 10:43:55;;;;;;;19.75;10.75;;;19.30;67.10;;;;;;5077038;28;20024;-75
2021/11/10 10:46:29;;;;;;;20.42;11.00;;;19.50;67.70;;;;;;5076936;28;20070;-75
2021/11/10 10:49:19;;;;;;;18.17;10.02;;;19.80;66.10;;;;;;5077479;28;20021;-75
2021/11/10 10:51:48;;;;;;;17.33;8.73;;;20.00;66.40;;;;;;5064590;28;20054;-76
2021/11/10 10:54:14;;;;;;;18.13;10.13;;;20.10;64.50;;;;;;5077721;28;20460;-75
2021/11/10 10:56:44;;;;;;;20.83;10.68;;;20.20;63.70;;;;;;5081026;28;20024;-75
2021/11/10 10:59:12;;;;;;;21.13;10.85;;;20.30;61.90;;;;;;5081081;28;20032;-75
2021/11/10 11:01:41;;;;;;;65.38;31.55;;;20.30;62.00;;;;;;5081433;28;20043;-77
2021/11/10 11:04:12;;;;;;;79.68;40.75;;;20.50;63.50;;;;;;5079599;28;20037;-78
2021/11/10 11:06:44;;;;;;;42.70;20.85;;;20.60;63.60;;;;;;5079649;28;20028;-76
2021/11/10 11:09:14;;;;;;;26.83;12.63;;;20.60;62.70;;;;;;5080970;28;20020;-76
2021/11/10 11:11:56;;;;;;;23.77;12.95;;;20.50;60.80;;;;;;5080770;28;20029;-75
2021/11/10 11:14:54;;;;;;;26.15;11.48;;;20.30;61.90;;;;;;5068942;28;20025;-75
2021/11/10 11:17:35;;;;;;;23.58;11.80;;;20.00;62.00;;;;;;5080954;28;20098;-76
2021/11/10 11:20:06;;;;;;;22.20;10.27;;;19.80;61.90;;;;;;5079625;28;20032;-75
2021/11/10 11:22:41;;;;;;;23.45;10.20;;;19.60;60.50;;;;;;5080864;28;20490;-78
2021/11/10 11:25:11;;;;;;;22.63;9.60;;;19.50;59.90;;;;;;5080481;28;20032;-76
2021/11/10 11:27:38;;;;;;;26.58;9.98;;;19.40;60.60;;;;;;5080075;28;20515;-76
2021/11/10 11:30:11;;;;;;;22.20;10.40;;;19.50;61.10;;;;;;5079049;28;20021;-76
2021/11/10 11:32:43;;;;;;;20.23;9.40;;;19.60;62.00;;;;;;5080637;28;20042;-76
2021/11/10 11:35:30;;;;;;;21.25;10.15;;;19.80;60.90;;;;;;5080467;28;20016;-76
2021/11/10 11:37:59;;;;;;;34.67;12.73;;;20.00;60.90;;;;;;5080030;28;20147;-76
2021/11/10 11:40:29;;;;;;;25.35;11.05;;;20.20;61.50;;;;;;5080280;28;20024;-77
2021/11/10 11:42:56;;;;;;;25.27;9.95;;;20.40;60.30;;;;;;5079986;28;20025;-77
2021/11/10 11:45:23;;;;;;;22.67;9.98;;;20.50;60.40;;;;;;5080359;28;20025;-76
2021/11/10 11:47:51;;;;;;;22.20;14.00;;;20.50;60.10;;;;;;5080200;28;20027;-76
2021/11/10 11:50:18;;;;;;;28.80;12.13;;;20.70;60.80;;;;;;5071625;28;20376;-76
2021/11/10 11:52:45;;;;;;;20.92;9.77;;;20.80;59.70;;;;;;5075276;28;20483;-76
2021/11/10 11:55:40;;;;;;;28.88;10.18;;;20.80;59.00;;;;;;5080260;28;20052;-76
2021/11/10 11:58:14;;;;;;;26.52;9.63;;;20.80;58.40;;;;;;5079032;28;20086;-76
2021/11/10 12:00:48;;;;;;;20.55;9.80;;;20.80;58.70;;;;;;5079768;28;20048;-74
2021/11/10 12:03:22;;;;;;;22.15;8.80;;;20.70;59.10;;;;;;5079962;28;20028;-76
2021/11/10 12:05:53;;;;;;;25.13;9.85;;;20.70;59.00;;;;;;5078830;28;20020;-75
2021/11/10 12:08:40;;;;;;;23.75;13.00;;;20.60;58.20;;;;;;5080011;28;20112;-75
2021/11/10 12:11:35;;;;;;;26.38;10.00;;;20.60;59.20;;;;;;5070988;28;20024;-74
2021/11/10 12:14:15;;;;;;;30.75;14.18;;;20.50;58.70;;;;;;5077760;28;20060;-79
2021/11/10 12:16:56;;;;;;;24.90;10.32;;;20.40;58.30;;;;;;5067659;28;20027;-84
2021/11/10 12:19:28;;;;;;;31.45;13.30;;;20.30;57.90;;;;;;5078255;28;20048;-81
2021/11/10 12:22:15;;;;;;;32.05;15.07;;;20.10;58.70;;;;;;5079328;28;20384;-79
2021/11/10 12:24:55;;;;;;;37.65;12.32;;;20.10;59.40;;;;;;5074213;28;20029;-78
2021/11/10 12:27:40;;;;;;;29.73;13.10;;;20.00;58.10;;;;;;5073180;28;20021;-79
2021/11/10 12:30:15;;;;;;;24.92;11.77;;;19.90;59.20;;;;;;5074557;28;20033;-80
2021/11/10 12:32:43;;;;;;;22.42;9.07;;;19.90;59.00;;;;;;5076645;28;20017;-78
2021/11/10 12:35:30;;;;;;;26.75;10.32;;;19.90;58.40;;;;;;5079260;28;20066;-76
2021/11/10 12:37:59;;;;;;;80.15;32.97;;;19.80;58.90;;;;;;5073905;28;20052;-76
2021/11/10 12:40:32;;;;;;;103.57;41.92;;;19.90;59.30;;;;;;5079192;28;20036;-76
2021/11/10 12:43:01;;;;;;;34.80;13.93;;;19.90;59.60;;;;;;5078698;28;20029;-76